createdAt,value
2018-04-27T03:35:56.971Z,82.10
2018-04-27T03:38:28.850Z,82.30
2018-04-27T03:41:00.733Z,82.20
2018-04-27T03:43:33.424Z,82.60
2018-04-27T03:46:06.063Z,83.10
2018-04-27T03:48:37.941Z,83.10
2018-04-27T03:51:09.818Z,83.10
2018-04-27T03:53:42.469Z,83.30
2018-04-27T03:56:14.333Z,83.30
2018-04-27T03:58:46.252Z,83.30
2018-04-27T04:01:30.049Z,83.40
2018-04-27T04:04:13.946Z,83.90
2018-04-27T04:06:45.814Z,84.20
2018-04-27T04:09:17.722Z,84.70
2018-04-27T04:11:50.615Z,85.10
2018-04-27T04:14:22.571Z,85.00
2018-04-27T04:16:55.278Z,85.40
2018-04-27T04:19:28.953Z,85.40
2018-04-27T04:22:01.634Z,86.30
2018-04-27T04:24:34.517Z,86.30
2018-04-27T04:27:06.392Z,86.20
2018-04-27T04:29:38.281Z,86.50
2018-04-27T04:32:10.406Z,87.00
2018-04-27T04:34:42.282Z,86.60
2018-04-27T04:37:14.146Z,86.50
2018-04-27T04:39:46.507Z,86.60
2018-04-27T04:42:18.381Z,86.70
2018-04-27T04:44:50.267Z,86.90
2018-04-27T04:47:22.483Z,87.00
2018-04-27T04:49:54.399Z,86.70
2018-04-27T04:52:26.358Z,86.30
2018-04-27T04:54:58.317Z,86.20
2018-04-27T04:57:30.275Z,86.30
2018-04-27T05:00:02.166Z,86.10
2018-04-27T05:02:34.034Z,85.60
2018-04-27T05:05:06.718Z,85.00
2018-04-27T05:07:39.438Z,84.50
2018-04-27T05:10:11.320Z,84.30
2018-04-27T05:12:43.533Z,83.50
2018-04-27T05:15:15.445Z,82.70
2018-04-27T05:17:47.398Z,81.10
2018-04-27T05:20:19.114Z,77.50
2018-04-27T05:22:51.014Z,73.70
2018-04-27T05:25:23.138Z,71.30
2018-04-27T05:27:55.010Z,65.30
2018-04-27T05:30:27.167Z,61.50
2018-04-27T05:33:03.949Z,60.80
2018-04-27T05:35:35.838Z,60.00
2018-04-27T05:38:07.814Z,59.90
2018-04-27T05:40:40.037Z,59.20
2018-04-27T05:43:12.197Z,58.20
2018-04-27T05:45:44.161Z,57.70
2018-04-27T05:48:16.150Z,56.60
2018-04-27T05:50:48.787Z,53.30
2018-04-27T05:53:21.421Z,52.40
2018-04-27T05:55:53.337Z,52.40
2018-04-27T05:58:25.970Z,53.60
2018-04-27T06:00:57.854Z,53.70
2018-04-27T06:06:37.074Z,56.90
2018-04-27T06:09:08.953Z,57.80
2018-04-27T06:11:40.834Z,58.90
2018-04-27T06:14:13.489Z,58.90
2018-04-27T06:16:46.186Z,58.90
2018-04-27T06:19:19.088Z,57.10
2018-04-27T06:21:51.254Z,57.00
2018-04-27T06:24:23.417Z,56.70
2018-04-27T06:26:55.309Z,56.50
2018-04-27T06:29:27.175Z,55.90
2018-04-27T06:31:59.307Z,56.10
2018-04-27T06:34:31.425Z,55.30
2018-04-27T06:37:03.637Z,54.70
2018-04-27T06:39:35.510Z,53.80
2018-04-27T06:42:07.410Z,51.80
2018-04-27T06:44:39.522Z,52.20
2018-04-27T06:47:11.423Z,52.90
2018-04-27T06:49:43.294Z,52.90
2018-04-27T06:52:15.198Z,53.10
2018-04-27T06:54:47.857Z,53.10
2018-04-27T06:57:19.734Z,53.00
2018-04-27T06:59:52.375Z,53.70
2018-04-27T07:02:24.282Z,53.60
2018-04-27T07:04:56.918Z,54.00
2018-04-27T07:07:28.815Z,53.90
2018-04-27T07:10:01.450Z,52.40
2018-04-27T07:12:33.330Z,52.50
2018-04-27T07:15:05.201Z,52.60
2018-04-27T07:17:37.861Z,54.00
2018-04-27T07:20:09.734Z,54.00
2018-04-27T07:22:41.621Z,54.10
2018-04-27T07:25:13.502Z,53.30
2018-04-27T07:27:45.386Z,53.40
2018-04-27T07:30:17.505Z,52.90
2018-04-27T07:32:49.403Z,53.60
2018-04-27T07:35:21.549Z,53.70
2018-04-27T07:37:53.694Z,54.40
2018-04-27T07:40:25.865Z,54.60
2018-04-27T07:42:57.754Z,54.10
2018-04-27T07:45:29.638Z,53.30
2018-04-27T07:48:01.532Z,53.30
2018-04-27T07:50:34.167Z,52.40
2018-04-27T07:53:06.132Z,52.40
2018-04-27T07:55:38.001Z,52.80
2018-04-27T07:58:09.890Z,52.10
2018-04-27T08:00:42.793Z,50.80
2018-04-27T08:03:15.064Z,50.80
2018-04-27T08:05:46.941Z,49.90
2018-04-27T08:08:18.834Z,48.70
2018-04-27T08:10:50.762Z,49.30
2018-04-27T08:13:22.663Z,50.00
2018-04-27T08:15:54.557Z,49.80
2018-04-27T08:18:26.465Z,49.40
2018-04-27T08:20:58.582Z,49.60
2018-04-27T08:23:30.698Z,50.20
2018-04-27T08:26:02.575Z,51.10
2018-04-27T08:28:36.362Z,50.50
2018-04-27T08:31:09.011Z,51.20
2018-04-27T08:33:40.898Z,51.70
2018-04-27T08:36:12.866Z,51.40
2018-04-27T08:38:44.702Z,51.20
2018-04-27T08:41:16.624Z,49.90
2018-04-27T08:43:49.372Z,49.90
2018-04-27T08:46:21.943Z,49.50
2018-04-27T08:48:53.829Z,49.50
2018-04-27T08:51:25.693Z,48.20
2018-04-27T08:53:58.343Z,48.80
2018-04-27T08:56:30.450Z,48.70
2018-04-27T08:59:02.391Z,48.90
2018-04-27T09:01:34.615Z,48.40
2018-04-27T09:04:06.484Z,49.40
2018-04-27T09:06:38.366Z,48.30
2018-04-27T09:09:10.259Z,47.20
2018-04-27T09:11:42.891Z,46.40
2018-04-27T09:14:14.786Z,46.40
2018-04-27T09:16:47.419Z,46.00
2018-04-27T09:19:19.322Z,45.90
2018-04-27T09:21:51.185Z,45.60
2018-04-27T09:24:23.838Z,44.00
2018-04-27T09:26:55.808Z,43.90
2018-04-27T09:29:28.382Z,43.40
2018-04-27T09:32:00.311Z,43.30
2018-04-27T09:34:32.226Z,42.60
2018-04-27T09:37:04.868Z,40.10
2018-04-27T09:39:36.782Z,40.10
2018-04-27T09:42:08.701Z,40.30
2018-04-27T09:44:40.644Z,39.30
2018-04-27T09:47:12.518Z,38.10
2018-04-27T09:49:44.734Z,37.20
2018-04-27T09:52:16.602Z,36.70
2018-04-27T09:54:48.494Z,37.10
2018-04-27T09:57:20.366Z,37.40
2018-04-27T09:59:52.258Z,37.00
2018-04-27T10:02:24.999Z,37.70
2018-04-27T10:04:56.905Z,37.60
2018-04-27T10:07:29.543Z,36.60
2018-04-27T10:10:01.446Z,36.60
2018-04-27T10:12:33.613Z,35.80
2018-04-27T10:15:05.558Z,35.50
2018-04-27T10:17:37.411Z,35.30
2018-04-27T10:20:09.395Z,35.30
2018-04-27T10:22:42.286Z,34.10
2018-04-27T10:25:14.179Z,34.10
2018-04-27T10:27:46.054Z,33.60
2018-04-27T10:30:18.275Z,33.50
2018-04-27T10:32:50.159Z,34.20
2018-04-27T10:35:22.050Z,34.80
2018-04-27T10:37:54.258Z,34.50
2018-04-27T10:40:26.145Z,34.70
2018-04-27T10:42:58.038Z,35.80
2018-04-27T10:45:30.247Z,36.10
2018-04-27T10:48:02.161Z,35.20
2018-04-27T10:50:34.055Z,34.30
2018-04-27T10:53:06.731Z,36.20
2018-04-27T10:55:39.380Z,36.00
2018-04-27T10:58:11.493Z,36.00
2018-04-27T11:00:43.370Z,36.20
2018-04-27T11:03:15.311Z,36.70
2018-04-27T11:05:47.186Z,36.80
2018-04-27T11:08:19.072Z,35.90
2018-04-27T11:10:50.962Z,36.50
2018-04-27T11:13:22.846Z,36.70
2018-04-27T11:15:56.433Z,36.00
2018-04-27T11:18:29.080Z,35.00
2018-04-27T11:21:01.012Z,34.90
2018-04-27T11:23:32.882Z,35.10
2018-04-27T11:26:04.924Z,35.00
2018-04-27T11:28:37.124Z,34.50
2018-04-27T11:31:09.026Z,36.50
2018-04-27T11:33:41.286Z,34.20
2018-04-27T11:36:13.947Z,34.50
2018-04-27T11:38:46.055Z,34.90
2018-04-27T11:41:17.949Z,35.30
2018-04-27T11:43:49.824Z,33.10
2018-04-27T11:46:21.942Z,34.40
2018-04-27T11:48:53.823Z,33.20
2018-04-27T11:51:25.723Z,32.10
2018-04-27T11:53:57.594Z,33.70
2018-04-27T11:56:29.790Z,33.70
2018-04-27T11:59:01.691Z,34.90
2018-04-27T12:01:33.945Z,34.60
2018-04-27T12:04:05.818Z,34.60
2018-04-27T12:06:37.715Z,33.60
2018-04-27T12:09:09.915Z,33.60
2018-04-27T12:11:41.820Z,34.90
2018-04-27T12:14:13.696Z,34.60
2018-04-27T12:16:45.895Z,34.40
2018-04-27T12:19:17.789Z,34.40
2018-04-27T12:21:49.674Z,34.90
2018-04-27T12:24:21.550Z,35.80
2018-04-27T12:26:53.486Z,35.70
2018-04-27T12:29:25.366Z,37.30
2018-04-27T12:31:57.340Z,36.00
2018-04-27T12:34:29.147Z,37.50
2018-04-27T12:37:01.054Z,37.80
2018-04-27T12:39:32.938Z,36.80
2018-04-27T12:42:04.834Z,37.70
2018-04-27T12:44:36.731Z,38.20
2018-04-27T12:47:08.630Z,39.30
2018-04-27T12:49:40.627Z,38.60
2018-04-27T12:52:12.615Z,38.10
2018-04-27T12:54:45.075Z,39.40
2018-04-27T12:57:16.975Z,39.00
2018-04-27T12:59:49.622Z,39.60
2018-04-27T13:02:21.554Z,39.60
2018-04-27T13:04:54.093Z,39.10
2018-04-27T13:07:25.990Z,40.00
2018-04-27T13:09:57.886Z,40.40
2018-04-27T13:12:30.545Z,40.30
2018-04-27T13:15:02.421Z,40.20
2018-04-27T13:17:34.335Z,40.60
2018-04-27T13:20:06.482Z,39.40
2018-04-27T13:22:38.816Z,38.60
2018-04-27T13:25:10.714Z,39.20
2018-04-27T13:27:42.672Z,39.70
2018-04-27T13:30:15.325Z,39.30
2018-04-27T13:32:47.221Z,39.20
2018-04-27T13:35:19.109Z,39.20
2018-04-27T13:37:51.019Z,40.20
2018-04-27T13:40:23.674Z,40.50
2018-04-27T13:42:55.679Z,40.40
2018-04-27T13:45:27.619Z,39.20
2018-04-27T13:47:59.459Z,39.20
2018-04-27T13:50:31.331Z,38.40
2018-04-27T13:53:03.982Z,36.80
2018-04-27T13:55:35.891Z,36.30
2018-04-27T13:58:07.852Z,36.00
2018-04-27T14:00:40.495Z,36.80
2018-04-27T14:03:12.496Z,36.80
2018-04-27T14:05:45.139Z,36.40
2018-04-27T14:08:17.344Z,36.40
2018-04-27T14:10:49.225Z,36.20
2018-04-27T14:13:21.130Z,35.70
2018-04-27T14:15:53.007Z,36.10
2018-04-27T14:18:25.669Z,36.50
2018-04-27T14:20:58.425Z,35.80
2018-04-27T14:23:30.306Z,36.40
2018-04-27T14:26:02.409Z,35.30
2018-04-27T14:28:34.290Z,35.40
2018-04-27T14:31:06.176Z,35.80
2018-04-27T14:33:38.080Z,36.20
2018-04-27T14:36:11.635Z,36.90
2018-04-27T14:38:43.530Z,35.80
2018-04-27T14:41:16.178Z,36.50
2018-04-27T14:43:48.397Z,36.60
2018-04-27T14:46:20.266Z,36.40
2018-04-27T14:48:52.197Z,37.20
2018-04-27T14:51:24.843Z,38.00
2018-04-27T14:53:56.957Z,38.40
2018-04-27T14:56:28.833Z,39.30
2018-04-27T14:59:00.718Z,38.60
2018-04-27T15:01:32.592Z,38.80
2018-04-27T15:04:04.479Z,38.60
2018-04-27T15:06:37.138Z,39.60
2018-04-27T15:09:09.036Z,39.50
2018-04-27T15:11:40.908Z,40.00
2018-04-27T15:14:12.798Z,40.10
2018-04-27T15:16:48.099Z,40.20
2018-04-27T15:19:20.753Z,39.70
2018-04-27T15:21:52.941Z,39.70
2018-04-27T15:24:24.853Z,39.40
2018-04-27T15:26:56.742Z,40.50
2018-04-27T15:29:29.399Z,39.40
2018-04-27T15:32:01.290Z,39.40
2018-04-27T15:34:33.942Z,39.70
2018-04-27T15:37:05.823Z,39.50
2018-04-27T15:39:38.488Z,41.20
2018-04-27T15:42:10.588Z,41.20
2018-04-27T15:44:42.472Z,40.40
2018-04-27T15:47:14.606Z,41.20
2018-04-27T15:49:46.517Z,41.50
2018-04-27T15:52:18.738Z,41.70
2018-04-27T15:54:50.646Z,41.00
2018-04-27T15:57:22.606Z,42.00
2018-04-27T15:59:55.268Z,41.50
2018-04-27T16:02:27.092Z,40.70
2018-04-27T16:04:59.772Z,40.40
2018-04-27T16:07:32.412Z,41.00
2018-04-27T16:10:04.295Z,41.00
2018-04-27T16:12:36.937Z,41.00
2018-04-27T16:15:08.825Z,41.00
2018-04-27T16:17:40.706Z,40.70
2018-04-27T16:20:13.601Z,40.60
2018-04-27T16:22:45.699Z,40.40
2018-04-27T16:25:17.578Z,40.00
2018-04-27T16:27:49.481Z,40.50
2018-04-27T16:30:22.317Z,42.00
2018-04-27T16:32:54.194Z,41.90
2018-04-27T16:35:26.399Z,41.90
2018-04-27T16:37:58.261Z,41.70
2018-04-27T16:40:30.146Z,41.20
2018-04-27T16:43:02.022Z,41.90
2018-04-27T16:45:33.923Z,42.70
2018-04-27T16:48:06.814Z,41.50
2018-04-27T16:50:38.985Z,41.50
2018-04-27T16:53:10.859Z,41.50
2018-04-27T16:55:42.751Z,41.90
2018-04-27T16:58:14.630Z,41.40
2018-04-27T17:00:46.563Z,41.60
2018-04-27T17:03:18.431Z,41.60
2018-04-27T17:05:50.332Z,42.20
2018-04-27T17:08:22.973Z,42.20
2018-04-27T17:10:54.859Z,42.20
2018-04-27T17:13:26.770Z,41.80
2018-04-27T17:15:58.655Z,42.90
2018-04-27T17:18:30.529Z,43.20
2018-04-27T17:21:02.419Z,42.30
2018-04-27T17:23:34.309Z,41.80
2018-04-27T17:26:06.203Z,43.00
2018-04-27T17:28:38.191Z,42.60
2018-04-27T17:31:10.758Z,42.60
2018-04-27T17:33:42.635Z,41.70
2018-04-27T17:36:15.290Z,41.70
2018-04-27T17:38:47.174Z,41.70
2018-04-27T17:41:19.833Z,42.60
2018-04-27T17:43:51.774Z,42.40
2018-04-27T17:46:23.677Z,42.60
2018-04-27T17:48:56.320Z,41.60
2018-04-27T17:51:28.273Z,41.60
2018-04-27T17:54:00.160Z,42.50
2018-04-27T17:56:32.810Z,42.60
2018-04-27T17:59:05.083Z,41.40
2018-04-27T18:01:36.989Z,41.90
2018-04-27T18:04:08.878Z,42.20
2018-04-27T18:06:40.771Z,42.40
2018-04-27T18:09:12.654Z,42.20
2018-04-27T18:11:45.431Z,42.80
2018-04-27T18:14:18.229Z,43.00
2018-04-27T18:16:50.157Z,42.20
2018-04-27T18:19:22.043Z,42.90
2018-04-27T18:21:54.692Z,43.80
2018-04-27T18:24:26.797Z,43.80
2018-04-27T18:26:58.702Z,44.90
2018-04-27T18:29:30.574Z,44.90
2018-04-27T18:32:02.787Z,44.30
2018-04-27T18:34:34.686Z,45.00
2018-04-27T18:37:06.604Z,45.30
2018-04-27T18:39:39.257Z,46.20
2018-04-27T18:42:11.147Z,45.90
2018-04-27T18:44:43.309Z,46.20
2018-04-27T18:47:15.266Z,46.60
2018-04-27T18:49:47.206Z,46.40
2018-04-27T18:52:19.094Z,46.40
2018-04-27T18:54:51.047Z,45.90
2018-04-27T18:57:24.258Z,45.80
2018-04-27T18:59:56.166Z,46.00
2018-04-27T19:02:28.059Z,46.30
2018-04-27T19:05:00.697Z,46.20
2018-04-27T19:07:32.814Z,46.10
2018-04-27T19:10:04.717Z,46.40
2018-04-27T19:12:36.612Z,46.20
2018-04-27T19:15:08.799Z,46.30
2018-04-27T19:17:40.966Z,46.40
2018-04-27T19:20:12.865Z,47.00
2018-04-27T19:22:44.751Z,46.70
2018-04-27T19:25:16.630Z,46.80
2018-04-27T19:27:49.322Z,47.40
2018-04-27T19:30:21.957Z,47.40
2018-04-27T19:32:53.874Z,47.00
2018-04-27T19:35:25.750Z,47.40
2018-04-27T19:37:57.641Z,47.50
2018-04-27T19:40:29.918Z,47.50
2018-04-27T19:43:01.806Z,47.60
2018-04-27T19:45:34.451Z,48.50
2018-04-27T19:48:06.366Z,47.90
2018-04-27T19:50:38.241Z,48.00
2018-04-27T19:53:10.139Z,47.00
2018-04-27T19:55:42.057Z,48.20
2018-04-27T19:58:13.962Z,48.20
2018-04-27T20:00:45.853Z,48.40
2018-04-27T20:03:18.426Z,48.20
2018-04-27T20:05:50.314Z,47.80
2018-04-27T20:08:22.209Z,47.80
2018-04-27T20:10:55.142Z,48.00
2018-04-27T20:13:26.910Z,48.30
2018-04-27T20:15:58.788Z,48.70
2018-04-27T20:18:30.803Z,48.80
2018-04-27T20:21:02.614Z,48.90
2018-04-27T20:23:35.326Z,49.40
2018-04-27T20:26:07.197Z,49.50
2018-04-27T20:28:39.865Z,50.10
2018-04-27T20:31:11.773Z,49.60
2018-04-27T20:33:43.654Z,50.00
2018-04-27T20:36:15.526Z,50.20
2018-04-27T20:38:47.422Z,50.40
2018-04-27T20:41:20.317Z,50.80
2018-04-27T20:43:52.206Z,50.80
2018-04-27T20:46:24.083Z,50.70
2018-04-27T20:48:56.302Z,51.00
2018-04-27T20:51:28.166Z,51.30
2018-04-27T20:54:02.784Z,51.60
2018-04-27T20:56:43.252Z,52.70
2018-04-27T20:59:15.141Z,52.60
2018-04-27T21:01:47.022Z,52.60
2018-04-27T21:04:18.909Z,52.70
2018-04-27T21:06:54.391Z,53.20
2018-04-27T21:09:26.300Z,53.10
2018-04-27T21:11:58.182Z,53.40
2018-04-27T21:14:30.837Z,53.80
2018-04-27T21:17:02.727Z,53.80
2018-04-27T21:19:35.380Z,54.20
